Terminal Aerodrome Forecast
Issued by NWS Newport/Morehead City, NC

Home | Current Version | Previous Version | Graphics & Text | Print | Product List | Glossary On
Versions: 1 2 3 4 5 6 7 8 9 10 11 12 13 14 15 16 17 18 19 20 21 22 23
635
FTUS42 KMHX 301725 AAA
TAFEWN
TAF AMD
KEWN 301725Z 3017/3118 VRB05KT 4SM SHRA BKN040
     FM310600 VRB03KT 4SM SHRA SCT008 BKN020
     FM311500 09007KT 4SM SHRA OVC040=

USA.gov is the U.S. government's official web portal to all federal, state and local government web resources and services.